createdAt,value
2023-11-28T00:01:31.761Z,97.71
2023-11-28T00:03:59.386Z,97.57
2023-11-28T00:06:26.706Z,97.25
2023-11-28T00:08:54.042Z,96.25
2023-11-28T00:11:22.650Z,96.05
2023-11-28T00:13:51.022Z,96.59
2023-11-28T00:16:18.757Z,96.82
2023-11-28T00:18:46.465Z,96.07
2023-11-28T00:21:14.353Z,96.02
2023-11-28T00:23:41.869Z,96.37
2023-11-28T00:26:09.018Z,95.40
2023-11-28T00:28:37.575Z,95.51
2023-11-28T00:31:04.916Z,95.82
2023-11-28T00:33:32.857Z,95.65
2023-11-28T00:35:59.994Z,95.03
2023-11-28T00:38:27.203Z,94.39
2023-11-28T00:40:54.834Z,95.37
2023-11-28T00:43:22.333Z,95.32
2023-11-28T00:45:49.869Z,95.93
2023-11-28T00:48:17.233Z,95.46
2023-11-28T00:50:44.486Z,95.92
2023-11-28T00:53:11.669Z,95.64
2023-11-28T00:55:38.805Z,95.39
2023-11-28T00:58:05.990Z,95.37
2023-11-28T01:00:33.375Z,96.23
2023-11-28T01:03:04.995Z,96.25
2023-11-28T01:05:32.514Z,96.13
2023-11-28T01:07:59.882Z,96.21
2023-11-28T01:10:27.094Z,96.40
2023-11-28T01:12:54.613Z,95.78
2023-11-28T01:15:22.333Z,96.87
2023-11-28T01:17:50.330Z,96.82
2023-11-28T01:20:17.457Z,96.80
2023-11-28T01:22:44.909Z,97.55
2023-11-28T01:25:12.634Z,97.51
2023-11-28T01:27:39.866Z,98.07
2023-11-28T01:30:07.924Z,98.68
2023-11-28T01:32:35.297Z,98.81
2023-11-28T01:35:03.546Z,99.08
2023-11-28T01:37:31.699Z,99.85
2023-11-28T01:39:59.123Z,100.00
2023-11-28T01:42:26.316Z,99.86
2023-11-28T01:44:53.552Z,100.00
2023-11-28T01:47:21.742Z,100.00
2023-11-28T01:49:49.027Z,100.00
2023-11-28T01:52:16.527Z,100.00
2023-11-28T01:54:44.389Z,100.00
2023-11-28T01:57:12.051Z,100.00
2023-11-28T01:59:39.987Z,100.00
2023-11-28T02:02:07.922Z,100.00
2023-11-28T02:04:35.474Z,100.00
2023-11-28T02:07:03.291Z,100.00
2023-11-28T02:09:31.067Z,100.00
2023-11-28T02:11:58.971Z,99.75
2023-11-28T02:14:26.242Z,100.00
2023-11-28T02:16:54.841Z,99.85
2023-11-28T02:19:22.477Z,99.40
2023-11-28T02:22:10.435Z,99.58
2023-11-28T02:24:42.717Z,98.86
2023-11-28T02:27:09.816Z,98.68
2023-11-28T02:29:37.161Z,99.57
2023-11-28T02:32:04.504Z,99.87
2023-11-28T02:34:31.628Z,99.19
2023-11-28T02:36:58.768Z,99.52
2023-11-28T02:39:26.188Z,100.00
2023-11-28T02:41:53.656Z,99.73
2023-11-28T02:44:20.844Z,99.22
2023-11-28T02:46:48.409Z,99.52
2023-11-28T02:49:15.670Z,99.51
2023-11-28T02:51:42.779Z,99.32
2023-11-28T02:54:09.917Z,99.17
2023-11-28T02:56:37.161Z,98.96
2023-11-28T02:59:04.552Z,98.44
2023-11-28T03:01:31.725Z,98.71
2023-11-28T03:03:58.953Z,99.26
2023-11-28T03:06:26.064Z,98.29
2023-11-28T03:08:54.030Z,97.69
2023-11-28T03:11:21.269Z,98.17
2023-11-28T03:13:48.517Z,98.15
2023-11-28T03:16:15.913Z,98.26
2023-11-28T03:18:43.098Z,98.54
2023-11-28T03:21:10.619Z,98.47
2023-11-28T03:23:37.895Z,97.70
2023-11-28T03:26:05.475Z,97.65
2023-11-28T03:28:32.617Z,97.91
2023-11-28T03:30:59.681Z,97.31
2023-11-28T03:33:26.774Z,96.97
2023-11-28T03:35:53.906Z,97.37
2023-11-28T03:38:20.956Z,97.41
2023-11-28T03:40:49.113Z,96.98
2023-11-28T03:43:16.314Z,96.85
2023-11-28T03:45:43.885Z,97.18
2023-11-28T03:48:11.235Z,95.75
2023-11-28T03:50:38.513Z,96.25
2023-11-28T03:53:05.982Z,96.37
2023-11-28T03:55:34.931Z,95.67
2023-11-28T03:58:02.144Z,95.45
2023-11-28T04:00:29.375Z,95.67
2023-11-28T04:02:57.688Z,96.13
2023-11-28T04:05:25.197Z,96.25
2023-11-28T04:07:52.344Z,95.96
2023-11-28T04:10:19.787Z,94.47
2023-11-28T04:12:46.940Z,95.71
2023-11-28T04:15:14.078Z,95.65
2023-11-28T04:17:41.451Z,95.17
2023-11-28T04:20:09.298Z,94.75
2023-11-28T04:22:36.494Z,96.05
2023-11-28T04:25:06.733Z,95.44
2023-11-28T04:27:34.112Z,95.89
2023-11-28T04:30:01.648Z,96.33
2023-11-28T04:32:32.507Z,96.62
2023-11-28T04:34:59.843Z,97.26
2023-11-28T04:37:27.093Z,96.97
2023-11-28T04:39:56.529Z,97.19
2023-11-28T04:42:23.562Z,97.57
2023-11-28T04:44:50.929Z,98.16
2023-11-28T04:47:18.167Z,98.33
2023-11-28T04:49:45.749Z,98.32
2023-11-28T04:52:12.894Z,99.17
2023-11-28T04:54:39.933Z,99.20
2023-11-28T04:57:07.193Z,99.68
2023-11-28T04:59:34.471Z,100.00
2023-11-28T05:02:01.999Z,100.00
2023-11-28T05:04:29.459Z,100.00
2023-11-28T05:06:57.320Z,100.00
2023-11-28T05:09:27.382Z,100.00
2023-11-28T05:11:55.049Z,100.00
2023-11-28T05:14:25.601Z,100.00
2023-11-28T05:16:54.495Z,100.00
2023-11-28T05:19:23.809Z,100.00
2023-11-28T05:21:54.342Z,100.00
2023-11-28T05:24:22.119Z,100.00
2023-11-28T05:26:49.384Z,100.00
2023-11-28T05:29:16.553Z,100.00
2023-11-28T05:31:43.855Z,100.00
2023-11-28T05:34:11.191Z,100.00
2023-11-28T05:36:38.517Z,100.00
2023-11-28T05:39:06.187Z,100.00
2023-11-28T05:41:33.518Z,100.00
2023-11-28T05:44:00.656Z,100.00
2023-11-28T05:46:28.371Z,100.00
2023-11-28T05:48:55.828Z,100.00
2023-11-28T05:51:23.124Z,100.00
2023-11-28T05:53:50.301Z,100.00
2023-11-28T05:56:18.963Z,100.00
2023-11-28T05:58:46.417Z,100.00
2023-11-28T06:01:16.912Z,100.00
2023-11-28T06:03:44.293Z,100.00
2023-11-28T06:06:11.633Z,100.00
2023-11-28T06:08:39.688Z,100.00
2023-11-28T06:11:10.097Z,100.00
2023-11-28T06:13:37.899Z,100.00
2023-11-28T06:16:06.453Z,99.99
2023-11-28T06:18:35.526Z,100.00
2023-11-28T06:21:02.719Z,100.00
2023-11-28T06:23:29.918Z,99.02
2023-11-28T06:25:57.415Z,99.16
2023-11-28T06:28:24.573Z,99.13
2023-11-28T06:30:52.078Z,98.39
2023-11-28T06:33:19.462Z,98.51
2023-11-28T06:35:47.962Z,98.64
2023-11-28T06:38:15.185Z,98.33
2023-11-28T06:40:42.482Z,97.85
2023-11-28T06:43:10.211Z,97.77
2023-11-28T06:45:37.469Z,97.59
2023-11-28T06:48:05.076Z,97.18
2023-11-28T06:50:32.461Z,96.92
2023-11-28T06:52:59.677Z,96.66
2023-11-28T06:55:26.909Z,96.97
2023-11-28T06:57:54.177Z,96.78
2023-11-28T07:00:21.346Z,96.91
2023-11-28T07:02:48.667Z,96.38
2023-11-28T07:05:16.062Z,96.55
2023-11-28T07:07:43.335Z,96.02
2023-11-28T07:10:10.748Z,95.72
2023-11-28T07:12:37.950Z,95.80
2023-11-28T07:15:05.847Z,96.17
2023-11-28T07:17:34.080Z,95.82
2023-11-28T07:20:01.565Z,96.42
2023-11-28T07:22:32.100Z,96.37
2023-11-28T07:25:01.692Z,95.71
2023-11-28T07:27:32.860Z,95.46
2023-11-28T07:30:00.074Z,95.04
2023-11-28T07:32:27.526Z,94.85
2023-11-28T07:34:54.891Z,94.34
2023-11-28T07:37:22.605Z,94.79
2023-11-28T07:39:50.454Z,95.05
2023-11-28T07:42:17.802Z,94.36
2023-11-28T07:44:46.814Z,94.76
2023-11-28T07:47:16.933Z,94.39
2023-11-28T07:49:44.698Z,94.52
2023-11-28T07:52:13.825Z,94.47
2023-11-28T07:54:41.177Z,93.78
2023-11-28T07:57:08.324Z,94.42
2023-11-28T07:59:35.925Z,94.35
2023-11-28T08:02:03.471Z,94.88
2023-11-28T08:04:31.139Z,95.14
2023-11-28T08:06:58.335Z,95.03
2023-11-28T08:09:25.501Z,94.86
2023-11-28T08:11:52.673Z,94.96
2023-11-28T08:14:21.494Z,94.42
2023-11-28T08:16:50.165Z,94.57
2023-11-28T08:19:17.788Z,94.49
2023-11-28T08:21:45.178Z,93.99
2023-11-28T08:24:12.419Z,94.31
2023-11-28T08:26:39.731Z,93.77
2023-11-28T08:29:06.909Z,93.91
2023-11-28T08:31:34.237Z,94.26
2023-11-28T08:34:01.413Z,93.99
2023-11-28T08:36:30.772Z,94.06
2023-11-28T08:38:57.998Z,93.70
2023-11-28T08:41:25.329Z,93.79
2023-11-28T08:43:52.742Z,93.90
2023-11-28T08:46:22.321Z,93.42
2023-11-28T08:48:51.864Z,93.17
2023-11-28T08:51:19.219Z,93.29
2023-11-28T08:53:46.614Z,92.56
2023-11-28T08:56:14.566Z,92.92
2023-11-28T08:58:42.101Z,92.44
2023-11-28T09:01:09.503Z,92.79
2023-11-28T09:03:37.188Z,93.15
2023-11-28T09:06:04.658Z,94.02
2023-11-28T09:08:31.997Z,93.82
2023-11-28T09:10:59.516Z,94.28
2023-11-28T09:13:27.224Z,94.36
2023-11-28T09:15:55.700Z,93.81
2023-11-28T09:18:23.362Z,93.23
2023-11-28T09:20:50.682Z,93.43
2023-11-28T09:23:18.016Z,93.50
2023-11-28T09:25:50.465Z,92.97
2023-11-28T09:28:24.395Z,93.42
2023-11-28T09:30:51.615Z,93.10
2023-11-28T09:33:18.952Z,93.28
2023-11-28T09:35:46.460Z,91.85
2023-11-28T09:38:14.182Z,91.81
2023-11-28T09:40:41.541Z,92.41
2023-11-28T09:43:09.177Z,91.86
2023-11-28T09:45:39.456Z,91.74
2023-11-28T09:48:11.417Z,91.61
2023-11-28T09:50:40.374Z,91.55
2023-11-28T09:53:08.072Z,91.00
2023-11-28T09:55:35.869Z,90.83
2023-11-28T09:58:05.102Z,89.04
2023-11-28T10:00:35.716Z,89.69
2023-11-28T10:03:04.768Z,88.99
2023-11-28T10:05:32.254Z,88.95
2023-11-28T10:08:00.057Z,88.24
2023-11-28T10:10:27.359Z,88.70
2023-11-28T10:12:55.624Z,88.73
2023-11-28T10:15:23.111Z,87.86
2023-11-28T10:17:50.987Z,88.01
2023-11-28T10:20:23.030Z,87.07
2023-11-28T10:22:54.567Z,88.39
2023-11-28T10:25:25.694Z,87.67
2023-11-28T10:27:59.473Z,86.92
2023-11-28T10:30:29.374Z,87.38
2023-11-28T10:32:58.933Z,87.04
2023-11-28T10:35:39.301Z,86.08
2023-11-28T10:38:07.047Z,86.15
2023-11-28T10:40:35.036Z,85.67
2023-11-28T10:43:02.294Z,84.56
2023-11-28T10:45:29.773Z,85.15
2023-11-28T10:47:57.333Z,84.61
2023-11-28T10:50:24.753Z,85.17
2023-11-28T10:52:53.390Z,84.98
2023-11-28T10:55:22.713Z,85.12
2023-11-28T10:58:01.607Z,85.17
2023-11-28T11:00:30.080Z,83.69
2023-11-28T11:02:59.305Z,83.64
2023-11-28T11:05:27.455Z,83.83
2023-11-28T11:07:55.589Z,83.67
2023-11-28T11:10:23.514Z,83.09
2023-11-28T11:13:04.838Z,83.31
2023-11-28T11:16:03.403Z,82.37
2023-11-28T11:18:43.415Z,82.54
2023-11-28T11:21:28.665Z,82.88
2023-11-28T11:23:56.400Z,80.25
2023-11-28T11:26:46.300Z,82.16
2023-11-28T11:29:25.630Z,82.33
2023-11-28T11:31:54.310Z,82.49
2023-11-28T11:34:34.793Z,82.47
2023-11-28T11:37:11.527Z,82.14
2023-11-28T11:39:40.305Z,82.52
2023-11-28T11:42:13.363Z,82.89
2023-11-28T11:44:41.871Z,82.42
2023-11-28T11:47:21.255Z,82.36
2023-11-28T11:49:51.922Z,82.97
2023-11-28T11:52:21.118Z,83.28
2023-11-28T11:54:48.478Z,82.52
2023-11-28T11:57:15.809Z,83.09
2023-11-28T11:59:43.249Z,82.56
2023-11-28T12:02:10.930Z,81.99
2023-11-28T12:04:45.968Z,81.77
2023-11-28T12:07:16.222Z,81.57
2023-11-28T12:09:43.939Z,82.42
2023-11-28T12:12:14.854Z,81.64
2023-11-28T12:14:42.267Z,80.99
2023-11-28T12:17:09.859Z,81.08
2023-11-28T12:19:37.047Z,80.46
2023-11-28T12:22:10.692Z,79.75
2023-11-28T12:24:38.025Z,79.80
2023-11-28T12:27:05.607Z,79.77
2023-11-28T12:29:33.419Z,79.33
2023-11-28T12:32:00.744Z,79.68
2023-11-28T12:34:30.241Z,80.57
2023-11-28T12:36:59.012Z,80.48
2023-11-28T12:39:27.516Z,80.29
2023-11-28T12:41:55.986Z,80.95
2023-11-28T12:44:31.408Z,80.87
2023-11-28T12:47:00.768Z,81.14
2023-11-28T12:49:28.506Z,80.54
2023-11-28T12:51:59.506Z,80.36
2023-11-28T12:54:27.186Z,80.41
2023-11-28T12:56:54.879Z,80.82
2023-11-28T12:59:24.504Z,80.45
2023-11-28T13:01:57.070Z,79.86
2023-11-28T13:04:25.713Z,80.22
2023-11-28T13:07:05.555Z,80.59
2023-11-28T13:09:41.388Z,79.79
2023-11-28T13:12:09.627Z,80.10
2023-11-28T13:14:38.016Z,78.92
2023-11-28T13:17:07.993Z,79.64
2023-11-28T13:19:37.692Z,79.69
2023-11-28T13:22:05.695Z,78.97
2023-11-28T13:24:33.182Z,78.64
2023-11-28T13:27:00.355Z,78.33
2023-11-28T13:29:27.706Z,79.01
2023-11-28T13:31:56.636Z,78.74
2023-11-28T13:34:23.881Z,78.58
2023-11-28T13:36:51.080Z,78.82
2023-11-28T13:39:18.228Z,79.52
2023-11-28T13:41:45.511Z,78.88
2023-11-28T13:44:13.281Z,78.72
2023-11-28T13:46:42.334Z,79.18
2023-11-28T13:49:09.774Z,79.00
2023-11-28T13:51:37.306Z,78.75
2023-11-28T13:54:06.326Z,78.49
2023-11-28T13:56:34.921Z,78.21
2023-11-28T13:59:02.857Z,77.36
2023-11-28T14:01:30.974Z,77.11
2023-11-28T14:04:00.067Z,77.63
2023-11-28T14:06:27.635Z,77.72
2023-11-28T14:08:54.914Z,78.05
2023-11-28T14:11:22.159Z,77.72
2023-11-28T14:13:49.528Z,77.25
2023-11-28T14:16:16.722Z,77.97
2023-11-28T14:18:44.020Z,78.10
2023-11-28T14:21:11.259Z,77.59
2023-11-28T14:23:38.478Z,77.81
2023-11-28T14:26:06.100Z,77.97
2023-11-28T14:28:33.480Z,78.15
2023-11-28T14:31:00.838Z,78.69
2023-11-28T14:33:30.180Z,78.95
2023-11-28T14:35:58.340Z,78.84
2023-11-28T14:38:25.755Z,78.58
2023-11-28T14:40:53.358Z,78.92
2023-11-28T14:43:20.636Z,78.57
2023-11-28T14:45:47.776Z,78.01
2023-11-28T14:48:15.176Z,79.18
2023-11-28T14:50:43.492Z,78.65
2023-11-28T14:53:12.985Z,79.48
2023-11-28T14:55:41.986Z,79.54
2023-11-28T14:58:10.765Z,80.18
2023-11-28T15:00:38.006Z,79.94
2023-11-28T15:03:06.208Z,79.37
2023-11-28T15:05:34.824Z,80.33
2023-11-28T15:08:02.277Z,79.59
2023-11-28T15:10:30.790Z,80.10
2023-11-28T15:12:58.756Z,80.64
2023-11-28T15:15:26.174Z,80.76
2023-11-28T15:17:53.545Z,79.84
2023-11-28T15:20:21.197Z,80.60
2023-11-28T15:22:48.639Z,80.45
2023-11-28T15:25:15.712Z,80.21
2023-11-28T15:27:42.959Z,80.66
2023-11-28T15:30:12.444Z,80.57
2023-11-28T15:32:40.445Z,80.66
2023-11-28T15:35:12.572Z,80.38
2023-11-28T15:37:41.533Z,81.27
2023-11-28T15:40:10.684Z,80.89
2023-11-28T15:42:38.238Z,80.75
2023-11-28T15:45:06.054Z,80.61
2023-11-28T15:47:34.448Z,81.23
2023-11-28T15:50:01.988Z,81.15
2023-11-28T15:52:32.967Z,81.41
2023-11-28T15:55:00.673Z,81.94
2023-11-28T15:57:32.530Z,81.66
2023-11-28T15:59:59.930Z,81.46
2023-11-28T16:02:28.760Z,81.74
2023-11-28T16:04:55.959Z,81.86
2023-11-28T16:07:24.290Z,81.94
2023-11-28T16:09:51.778Z,82.15
2023-11-28T16:12:19.232Z,81.79
2023-11-28T16:14:47.971Z,81.67
2023-11-28T16:17:16.420Z,82.08
2023-11-28T16:19:44.776Z,81.75
2023-11-28T16:22:12.116Z,82.03
2023-11-28T16:24:40.283Z,81.52
2023-11-28T16:27:07.417Z,82.16
2023-11-28T16:29:36.125Z,82.33
2023-11-28T16:32:03.573Z,81.94
2023-11-28T16:34:30.773Z,82.35
2023-11-28T16:36:57.837Z,81.77
2023-11-28T16:39:24.941Z,81.54
2023-11-28T16:41:52.078Z,81.98
2023-11-28T16:44:19.405Z,82.13
2023-11-28T16:46:46.673Z,81.65
2023-11-28T16:49:13.847Z,82.32
2023-11-28T16:51:41.144Z,81.58
2023-11-28T16:54:08.475Z,81.24
2023-11-28T16:56:35.890Z,82.34
2023-11-28T16:59:04.212Z,81.94
2023-11-28T17:01:34.062Z,81.76
2023-11-28T17:04:01.417Z,81.79
2023-11-28T17:06:30.330Z,82.30
2023-11-28T17:08:57.872Z,81.31
2023-11-28T17:11:25.247Z,81.99
2023-11-28T17:13:56.432Z,81.22
2023-11-28T17:16:24.457Z,81.28
2023-11-28T17:18:51.890Z,81.09
2023-11-28T17:21:19.982Z,81.02
2023-11-28T17:23:47.404Z,81.14
2023-11-28T17:26:16.666Z,80.76
2023-11-28T17:28:44.252Z,82.22
2023-11-28T17:31:11.616Z,81.72
2023-11-28T17:33:38.823Z,82.40
2023-11-28T17:36:06.264Z,82.12
2023-11-28T17:38:33.536Z,81.21
2023-11-28T17:41:00.907Z,81.92
2023-11-28T17:43:28.155Z,82.27
2023-11-28T17:45:55.533Z,82.41
2023-11-28T17:48:22.876Z,82.17
2023-11-28T17:50:51.932Z,82.85
2023-11-28T17:53:19.473Z,82.40
2023-11-28T17:55:47.858Z,82.55
2023-11-28T17:58:15.127Z,81.75
2023-11-28T18:00:42.274Z,82.26
2023-11-28T18:03:09.635Z,81.78
2023-11-28T18:05:37.591Z,82.11
2023-11-28T18:08:05.711Z,82.28
2023-11-28T18:10:33.119Z,82.38
2023-11-28T18:13:02.457Z,82.36
2023-11-28T18:15:33.017Z,82.00
2023-11-28T18:18:03.415Z,82.63
2023-11-28T18:20:36.319Z,82.56
2023-11-28T18:23:03.863Z,83.22
2023-11-28T18:25:31.140Z,82.98
2023-11-28T18:27:58.944Z,82.94
2023-11-28T18:30:26.679Z,83.33
2023-11-28T18:32:54.055Z,83.44
2023-11-28T18:35:22.712Z,83.38
2023-11-28T18:37:49.917Z,83.91
2023-11-28T18:40:17.277Z,83.54
2023-11-28T18:42:45.718Z,84.10
2023-11-28T18:45:12.889Z,83.05
2023-11-28T18:47:40.705Z,84.23
2023-11-28T18:50:08.729Z,83.40
2023-11-28T18:52:35.907Z,84.00
2023-11-28T18:55:04.423Z,83.57
2023-11-28T18:57:31.953Z,83.70
2023-11-28T18:59:59.509Z,83.74
2023-11-28T19:02:28.988Z,83.80
2023-11-28T19:04:56.449Z,83.18
2023-11-28T19:07:23.586Z,84.20
2023-11-28T19:09:50.933Z,84.05
2023-11-28T19:12:18.039Z,84.70
2023-11-28T19:14:45.773Z,85.34
2023-11-28T19:17:13.076Z,84.28
2023-11-28T19:19:41.351Z,84.60
2023-11-28T19:22:08.495Z,84.70
2023-11-28T19:24:36.552Z,84.59
2023-11-28T19:27:04.842Z,84.95
2023-11-28T19:29:32.226Z,85.44
2023-11-28T19:31:59.631Z,85.14
2023-11-28T19:34:28.915Z,85.43
2023-11-28T19:36:56.622Z,86.18
2023-11-28T19:51:13.485Z,86.05
2023-11-28T19:53:40.784Z,85.99
2023-11-28T19:56:08.096Z,86.72
2023-11-28T19:58:35.897Z,85.87
2023-11-28T20:01:05.178Z,85.99
2023-11-28T20:03:34.550Z,85.86
2023-11-28T20:06:02.235Z,85.27
2023-11-28T20:08:29.514Z,85.00
2023-11-28T20:10:56.800Z,85.32
2023-11-28T20:13:23.924Z,85.21
2023-11-28T20:15:52.057Z,84.93
2023-11-28T20:18:19.239Z,85.54
2023-11-28T20:20:46.601Z,85.53
2023-11-28T20:23:13.907Z,84.25
2023-11-28T20:25:40.971Z,84.14
2023-11-28T20:28:08.206Z,84.22
2023-11-28T20:30:35.308Z,84.42
2023-11-28T20:33:02.544Z,84.56
2023-11-28T20:35:29.788Z,83.92
2023-11-28T20:37:57.424Z,84.49
2023-11-28T20:40:26.959Z,84.31
2023-11-28T20:42:54.598Z,85.08
2023-11-28T20:45:22.065Z,84.84
2023-11-28T20:47:49.467Z,84.53
2023-11-28T20:50:16.809Z,84.76
2023-11-28T20:52:44.145Z,84.83
2023-11-28T20:55:11.374Z,85.14
2023-11-28T20:57:38.437Z,85.30
2023-11-28T21:00:07.058Z,84.90
2023-11-28T21:02:34.424Z,85.16
2023-11-28T21:05:02.111Z,84.80
2023-11-28T21:07:30.896Z,85.01
2023-11-28T21:09:58.066Z,85.31
2023-11-28T21:12:25.400Z,84.73
2023-11-28T21:14:52.788Z,85.28
2023-11-28T21:17:20.034Z,84.29
2023-11-28T21:19:50.533Z,84.64
2023-11-28T21:22:17.827Z,85.02
2023-11-28T21:24:45.406Z,84.88
2023-11-28T21:27:12.598Z,84.43
2023-11-28T21:29:41.527Z,84.46
2023-11-28T21:32:08.780Z,84.94
2023-11-28T21:34:36.189Z,85.00
2023-11-28T21:37:03.449Z,84.66
2023-11-28T21:39:32.058Z,84.11
2023-11-28T21:41:59.257Z,84.23
2023-11-28T21:44:27.273Z,84.54
2023-11-28T21:46:58.631Z,84.29
2023-11-28T21:49:25.866Z,84.92
2023-11-28T21:51:52.964Z,84.85
2023-11-28T21:54:20.334Z,84.22
2023-11-28T21:56:47.499Z,84.18
2023-11-28T21:59:15.023Z,85.08
2023-11-28T22:01:42.315Z,84.70
2023-11-28T22:04:09.497Z,84.81
2023-11-28T22:06:36.786Z,84.52
2023-11-28T22:09:05.068Z,84.96
2023-11-28T22:11:36.073Z,84.50
2023-11-28T22:14:03.964Z,84.83
2023-11-28T22:16:31.306Z,84.83
2023-11-28T22:18:58.452Z,84.21
2023-11-28T22:21:27.204Z,84.43
2023-11-28T22:23:54.912Z,84.35
2023-11-28T22:26:22.212Z,84.08
2023-11-28T22:28:49.361Z,83.89
2023-11-28T22:31:17.203Z,84.21
2023-11-28T22:33:44.413Z,84.12
2023-11-28T22:36:11.989Z,84.58
2023-11-28T22:38:39.312Z,84.54
2023-11-28T22:41:07.629Z,84.40
2023-11-28T22:43:34.799Z,84.28
2023-11-28T22:46:01.981Z,84.73
2023-11-28T22:48:29.562Z,84.67
2023-11-28T22:50:56.870Z,84.22
2023-11-28T22:53:24.514Z,84.27
2023-11-28T22:55:52.158Z,84.46
2023-11-28T22:58:19.224Z,84.70
2023-11-28T23:00:46.845Z,84.27
2023-11-28T23:03:14.543Z,84.94
2023-11-28T23:05:42.271Z,84.91
2023-11-28T23:08:09.849Z,84.17
2023-11-28T23:10:37.019Z,84.40
2023-11-28T23:13:05.203Z,84.24
2023-11-28T23:15:32.553Z,84.45
2023-11-28T23:17:59.751Z,84.25
2023-11-28T23:20:27.183Z,84.56
2023-11-28T23:22:58.467Z,84.71
2023-11-28T23:25:26.431Z,84.37
2023-11-28T23:27:56.290Z,84.56
2023-11-28T23:30:25.634Z,83.71
2023-11-28T23:32:53.075Z,84.67
2023-11-28T23:35:20.550Z,84.19
2023-11-28T23:37:48.069Z,84.55
2023-11-28T23:40:15.578Z,84.03
2023-11-28T23:42:47.187Z,84.62
2023-11-28T23:45:19.761Z,84.30
2023-11-28T23:47:49.960Z,84.05
2023-11-28T23:50:17.695Z,84.08
2023-11-28T23:52:44.963Z,84.13
2023-11-28T23:55:12.271Z,84.29
2023-11-28T23:57:39.502Z,84.58
